Pasadena, Florida
Current Conditions -  °F | °C
As of 5:53 PM on Thursday 27 Nov 2014 (Local Time) from KSPG Reporting Station
Clear Clear  
Wind Chill: 59°   Ceiling: Unl
Heat Index: 59°   Visibility: 10mi
Dew Point: 42°   Wind: 13mph
Humidity: 53%   Direction: 350°N
Pressure: 30.22"   Gusts: 20mph
Location:  27.7562°N, 82.7184°W
Report Text: KSPG 272253Z AUTO 35011G17KT 10SM CLR 15/06 A3022 RMK AO2 SLP231 T01500056
Loading
Personal Weather Stations






























Interactive Weather Map New forecast layout! Learn more

10-Day Weather Forecast

Advertisements
Track Severe Weather on mobile